createdAt,value
2023-02-04T00:02:00.151Z,102266.41
2023-02-04T00:04:26.641Z,102255.00
2023-02-04T00:06:53.269Z,102266.50
2023-02-04T00:09:19.722Z,102302.31
2023-02-04T00:11:46.282Z,102299.69
2023-02-04T00:14:12.907Z,102296.09
2023-02-04T00:16:39.442Z,102304.41
2023-02-04T00:19:05.938Z,102301.81
2023-02-04T00:21:32.473Z,102311.59
2023-02-04T00:23:59.090Z,102313.28
2023-02-04T00:26:25.577Z,102313.88
2023-02-04T00:28:52.054Z,102333.13
2023-02-04T00:31:18.669Z,102326.53
2023-02-04T00:33:45.225Z,102332.31
2023-02-04T00:36:11.951Z,102291.00
2023-02-04T00:38:38.445Z,102334.66
2023-02-04T00:41:06.490Z,102337.38
2023-02-04T00:43:33.006Z,102323.47
2023-02-04T00:45:59.673Z,102330.69
2023-02-04T00:48:26.897Z,102338.56
2023-02-04T00:50:54.094Z,102301.75
2023-02-04T00:53:20.600Z,102325.22
2023-02-04T00:55:47.145Z,102344.84
2023-02-04T00:58:13.766Z,102331.16
2023-02-04T01:00:40.447Z,102358.50
2023-02-04T01:03:07.171Z,102366.84
2023-02-04T01:05:33.953Z,102364.09
2023-02-04T01:08:00.531Z,102308.31
2023-02-04T01:10:27.170Z,102374.81
2023-02-04T01:12:53.884Z,102372.66
2023-02-04T01:15:20.412Z,102346.38
2023-02-04T01:17:47.114Z,102374.69
2023-02-04T01:20:13.629Z,102361.28
2023-02-04T01:22:40.271Z,102341.13
2023-02-04T01:25:07.411Z,102383.56
2023-02-04T01:27:33.911Z,102384.66
2023-02-04T01:30:00.580Z,102394.91
2023-02-04T01:32:27.119Z,102395.19
2023-02-04T01:34:53.965Z,102395.31
2023-02-04T01:37:21.132Z,102405.72
2023-02-04T01:39:47.678Z,102359.41
2023-02-04T01:42:14.555Z,102395.34
2023-02-04T01:44:41.256Z,102401.38
2023-02-04T01:47:07.902Z,102404.28
2023-02-04T01:49:34.600Z,102391.91
2023-02-04T01:52:02.279Z,102412.19
2023-02-04T01:54:28.958Z,102411.13
2023-02-04T01:56:55.712Z,102417.09
2023-02-04T01:59:22.934Z,102396.56
2023-02-04T02:01:53.706Z,102418.63
2023-02-04T02:04:28.464Z,102420.88
2023-02-04T02:06:58.680Z,102414.06
2023-02-04T02:09:29.806Z,102372.91
2023-02-04T02:11:56.660Z,102423.88
2023-02-04T02:14:23.900Z,102377.19
2023-02-04T02:16:50.469Z,102408.16
2023-02-04T02:19:22.404Z,102428.63
2023-02-04T02:22:28.051Z,102436.28
2023-02-04T02:24:54.560Z,102396.72
2023-02-04T02:27:22.158Z,102433.25
2023-02-04T02:29:48.932Z,102438.91
2023-02-04T02:32:15.721Z,102435.28
2023-02-04T02:34:42.986Z,102432.09
2023-02-04T02:37:09.531Z,102438.31
2023-02-04T02:39:38.439Z,102421.84
2023-02-04T02:42:05.128Z,102438.94
2023-02-04T02:44:32.311Z,102430.78
2023-02-04T02:46:59.042Z,102425.19
2023-02-04T02:49:26.542Z,102420.72
2023-02-04T02:51:53.445Z,102447.56
2023-02-04T02:54:24.328Z,102454.84
2023-02-04T02:56:51.706Z,102439.63
2023-02-04T02:59:18.747Z,102446.00
2023-02-04T03:01:48.260Z,102429.78
2023-02-04T03:04:15.618Z,102414.56
2023-02-04T03:06:42.187Z,102455.88
2023-02-04T03:09:08.900Z,102462.41
2023-02-04T03:11:36.422Z,102408.34
2023-02-04T03:14:04.276Z,102436.44
2023-02-04T03:16:32.860Z,102448.94
2023-02-04T03:19:03.085Z,102444.38
2023-02-04T03:21:29.654Z,102430.09
2023-02-04T03:23:56.822Z,102461.28
2023-02-04T03:26:24.962Z,102435.19
2023-02-04T03:28:52.783Z,102430.81
2023-02-04T03:31:19.426Z,102462.19
2023-02-04T03:33:45.952Z,102413.06
2023-02-04T03:36:12.520Z,102443.69
2023-02-04T03:38:39.133Z,102470.59
2023-02-04T03:41:06.047Z,102462.69
2023-02-04T03:43:34.067Z,102466.63
2023-02-04T03:46:00.720Z,102453.19
2023-02-04T03:48:27.433Z,102466.56
2023-02-04T03:50:53.927Z,102475.25
2023-02-04T03:53:22.077Z,102482.97
2023-02-04T03:55:48.553Z,102473.47
2023-02-04T03:58:15.027Z,102460.06
2023-02-04T04:00:41.504Z,102481.69
2023-02-04T04:03:08.086Z,102490.53
2023-02-04T04:05:34.984Z,102455.97
2023-02-04T04:08:01.686Z,102468.34
2023-02-04T04:10:29.450Z,102466.47
2023-02-04T04:12:56.303Z,102457.31
2023-02-04T04:15:22.933Z,102510.25
2023-02-04T04:17:49.712Z,102486.38
2023-02-04T04:20:16.413Z,102523.41
2023-02-04T04:22:42.918Z,102494.50
2023-02-04T04:25:09.461Z,102505.22
2023-02-04T04:27:35.953Z,102531.03
2023-02-04T04:30:03.156Z,102520.78
2023-02-04T04:32:29.759Z,102533.88
2023-02-04T04:34:56.260Z,102490.63
2023-02-04T04:37:22.733Z,102536.91
2023-02-04T04:39:49.437Z,102513.19
2023-02-04T04:42:15.972Z,102538.94
2023-02-04T04:44:42.810Z,102517.28
2023-02-04T04:47:09.419Z,102539.69
2023-02-04T04:49:35.897Z,102544.97
2023-02-04T04:52:02.388Z,102539.38
2023-02-04T04:54:28.842Z,102536.06
2023-02-04T04:56:55.658Z,102539.56
2023-02-04T04:59:22.220Z,102539.50
2023-02-04T05:01:48.800Z,102537.22
2023-02-04T05:04:15.319Z,102563.56
2023-02-04T05:06:41.948Z,102565.88
2023-02-04T05:09:09.711Z,102573.22
2023-02-04T05:11:36.305Z,102555.34
2023-02-04T05:14:02.850Z,102574.50
2023-02-04T05:16:29.485Z,102534.91
2023-02-04T05:18:56.463Z,102566.38
2023-02-04T05:21:22.950Z,102575.84
2023-02-04T05:23:49.396Z,102564.19
2023-02-04T05:26:29.135Z,102538.31
2023-02-04T05:28:56.241Z,102576.84
2023-02-04T05:31:22.856Z,102573.53
2023-02-04T05:33:49.486Z,102577.81
2023-02-04T05:36:16.193Z,102586.81
2023-02-04T05:38:42.687Z,102586.09
2023-02-04T05:41:09.181Z,102559.84
2023-02-04T05:43:36.131Z,102569.25
2023-02-04T05:46:03.076Z,102603.81
2023-02-04T05:48:29.594Z,102587.81
2023-02-04T05:50:56.198Z,102614.22
2023-02-04T05:53:22.665Z,102613.28
2023-02-04T05:55:49.122Z,102609.06
2023-02-04T05:58:15.590Z,102617.91
2023-02-04T06:00:42.376Z,102613.16
2023-02-04T06:03:09.127Z,102592.06
2023-02-04T06:05:36.008Z,102601.91
2023-02-04T06:08:02.557Z,102608.84
2023-02-04T06:10:29.872Z,102614.09
2023-02-04T06:12:56.572Z,102602.56
2023-02-04T06:15:23.069Z,102609.03
2023-02-04T06:17:49.546Z,102629.50
2023-02-04T06:20:16.260Z,102628.41
2023-02-04T06:22:43.024Z,102607.09
2023-02-04T06:25:09.517Z,102636.75
2023-02-04T06:27:36.191Z,102634.75
2023-02-04T06:30:02.807Z,102647.78
2023-02-04T06:32:29.372Z,102644.63
2023-02-04T06:34:55.913Z,102644.25
2023-02-04T06:37:24.304Z,102661.31
2023-02-04T06:39:51.844Z,102619.53
2023-02-04T06:42:18.429Z,102659.28
2023-02-04T06:44:45.366Z,102597.03
2023-02-04T06:47:12.014Z,102663.28
2023-02-04T06:49:38.491Z,102645.34
2023-02-04T06:52:05.717Z,102665.06
2023-02-04T06:54:32.255Z,102636.94
2023-02-04T06:57:06.456Z,102669.31
2023-02-04T06:59:40.395Z,102648.06
2023-02-04T07:02:08.124Z,102658.91
2023-02-04T07:04:35.294Z,102678.22
2023-02-04T07:07:01.939Z,102662.28
2023-02-04T07:09:28.441Z,102619.22
2023-02-04T07:11:55.010Z,102686.50
2023-02-04T07:14:21.664Z,102650.03
2023-02-04T07:16:48.187Z,102645.50
2023-02-04T07:19:15.140Z,102687.78
2023-02-04T07:21:41.708Z,102697.47
2023-02-04T07:24:08.282Z,102662.59
2023-02-04T07:26:34.834Z,102691.44
2023-02-04T07:29:01.340Z,102704.34
2023-02-04T07:31:28.070Z,102693.72
2023-02-04T07:33:54.616Z,102692.72
2023-02-04T07:36:21.284Z,102640.44
2023-02-04T07:38:47.782Z,102697.75
2023-02-04T07:41:14.265Z,102696.03
2023-02-04T07:43:40.930Z,102651.41
2023-02-04T07:46:07.469Z,102658.75
2023-02-04T07:48:34.214Z,102697.78
2023-02-04T07:51:00.793Z,102683.88
2023-02-04T07:53:28.334Z,102692.34
2023-02-04T07:55:54.908Z,102703.00
2023-02-04T07:58:21.440Z,102706.19
2023-02-04T08:00:47.912Z,102711.44
2023-02-04T08:03:14.447Z,102719.34
2023-02-04T08:05:40.913Z,102710.41
2023-02-04T08:08:07.522Z,102687.94
2023-02-04T08:10:34.454Z,102682.47
2023-02-04T08:13:01.102Z,102704.75
2023-02-04T08:15:27.731Z,102730.44
2023-02-04T08:17:54.231Z,102687.44
2023-02-04T08:20:20.740Z,102737.00
2023-02-04T08:22:47.252Z,102714.13
2023-02-04T08:25:13.898Z,102737.09
2023-02-04T08:27:40.499Z,102718.19
2023-02-04T08:30:07.920Z,102735.09
2023-02-04T08:32:34.444Z,102749.78
2023-02-04T08:35:01.148Z,102748.13
2023-02-04T08:37:27.730Z,102724.69
2023-02-04T08:39:54.464Z,102750.88
2023-02-04T08:42:21.008Z,102761.91
2023-02-04T08:44:47.537Z,102758.94
2023-02-04T08:47:14.171Z,102776.16
2023-02-04T08:49:40.828Z,102737.41
2023-02-04T08:52:07.964Z,102754.53
2023-02-04T08:54:35.040Z,102784.66
2023-02-04T08:57:02.078Z,102786.81
2023-02-04T08:59:28.621Z,102769.47
2023-02-04T09:01:55.259Z,102797.53
2023-02-04T09:04:23.322Z,102795.59
2023-02-04T09:06:50.716Z,102788.34
2023-02-04T09:09:17.807Z,102808.13
2023-02-04T09:11:44.630Z,102807.63
2023-02-04T09:14:11.454Z,102809.00
2023-02-04T09:16:38.080Z,102783.09
2023-02-04T09:19:05.516Z,102807.69
2023-02-04T09:21:32.277Z,102800.94
2023-02-04T09:23:58.858Z,102810.22
2023-02-04T09:26:25.793Z,102801.44
2023-02-04T09:28:52.373Z,102786.09
2023-02-04T09:31:19.146Z,102779.47
2023-02-04T09:33:45.853Z,102811.69
2023-02-04T09:36:12.501Z,102810.66
2023-02-04T09:38:39.069Z,102814.91
2023-02-04T09:41:11.212Z,102808.84
2023-02-04T09:43:43.270Z,102809.44
2023-02-04T09:46:22.247Z,102813.91
2023-02-04T09:48:49.559Z,102812.22
2023-02-04T09:51:21.956Z,102780.72
2023-02-04T09:53:49.003Z,102801.75
2023-02-04T09:56:15.654Z,102813.19
2023-02-04T09:58:42.507Z,102797.25
2023-02-04T10:01:16.034Z,102820.28
2023-02-04T10:03:47.620Z,102806.78
2023-02-04T10:06:19.372Z,102824.41
2023-02-04T10:08:47.709Z,102804.81
2023-02-04T10:11:15.384Z,102795.31
2023-02-04T10:13:50.205Z,102806.91
2023-02-04T10:16:29.865Z,102805.03
2023-02-04T10:19:04.712Z,102813.84
2023-02-04T10:21:32.588Z,102815.63
2023-02-04T10:24:00.821Z,102809.22
2023-02-04T10:26:29.424Z,102798.78
2023-02-04T10:29:33.037Z,102812.72
2023-02-04T10:31:59.773Z,102819.38
2023-02-04T10:34:38.192Z,102826.13
2023-02-04T10:37:18.592Z,102828.88
2023-02-04T10:39:45.064Z,102837.19
2023-02-04T10:42:26.419Z,102846.47
2023-02-04T10:44:53.315Z,102844.19
2023-02-04T10:47:22.631Z,102840.28
2023-02-04T10:50:16.028Z,102845.81
2023-02-04T10:52:44.514Z,102836.06
2023-02-04T10:55:14.940Z,102839.34
2023-02-04T10:57:42.876Z,102838.03
2023-02-04T11:00:16.016Z,102834.22
2023-02-04T11:02:45.874Z,102826.44
2023-02-04T11:05:18.696Z,102817.78
2023-02-04T11:07:46.996Z,102804.53
2023-02-04T11:10:19.131Z,102820.59
2023-02-04T11:12:59.472Z,102788.50
2023-02-04T11:15:50.772Z,102822.03
2023-02-04T11:18:20.959Z,102830.25
2023-02-04T11:20:49.109Z,102837.44
2023-02-04T11:23:29.765Z,102838.63
2023-02-04T11:26:10.104Z,102844.28
2023-02-04T11:28:48.021Z,102839.91
2023-02-04T11:31:27.056Z,102803.09
2023-02-04T11:34:23.079Z,102818.22
2023-02-04T11:36:56.252Z,102839.13
2023-02-04T11:39:23.200Z,102837.91
2023-02-04T11:41:49.869Z,102840.78
2023-02-04T11:44:17.364Z,102846.22
2023-02-04T11:46:44.011Z,102810.00
2023-02-04T11:49:17.962Z,102833.63
2023-02-04T11:51:47.295Z,102822.44
2023-02-04T11:54:17.134Z,102822.66
2023-02-04T11:56:43.588Z,102833.94
2023-02-04T11:59:12.119Z,102794.75
2023-02-04T12:01:39.072Z,102843.00
2023-02-04T12:04:08.328Z,102841.75
2023-02-04T12:06:36.728Z,102832.28
2023-02-04T12:09:24.321Z,102846.13
2023-02-04T12:12:04.460Z,102859.66
2023-02-04T12:14:36.794Z,102817.31
2023-02-04T12:17:20.370Z,102851.56
2023-02-04T12:19:46.883Z,102852.41
2023-02-04T12:22:14.757Z,102823.34
2023-02-04T12:24:41.635Z,102833.28
2023-02-04T12:27:08.179Z,102849.72
2023-02-04T12:29:34.627Z,102866.72
2023-02-04T12:32:01.193Z,102868.16
2023-02-04T12:34:28.217Z,102857.41
2023-02-04T12:36:54.692Z,102877.25
2023-02-04T12:39:21.179Z,102872.69
2023-02-04T12:41:47.940Z,102842.88
2023-02-04T12:44:15.338Z,102870.25
2023-02-04T12:46:41.945Z,102875.09
2023-02-04T12:49:09.710Z,102871.31
2023-02-04T12:51:36.465Z,102745.44
2023-02-04T12:54:03.006Z,102889.16
2023-02-04T12:56:29.490Z,102881.81
2023-02-04T12:58:56.044Z,102862.63
2023-02-04T13:01:22.578Z,102847.53
2023-02-04T13:03:49.127Z,102873.28
2023-02-04T13:06:15.626Z,102877.72
2023-02-04T13:08:42.624Z,102854.81
2023-02-04T13:11:09.150Z,102861.50
2023-02-04T13:13:35.622Z,102841.00
2023-02-04T13:16:02.181Z,102874.16
2023-02-04T13:18:28.816Z,102869.63
2023-02-04T13:20:55.289Z,102867.03
2023-02-04T13:23:21.811Z,102861.97
2023-02-04T13:25:48.425Z,102872.38
2023-02-04T13:28:15.014Z,102866.59
2023-02-04T13:30:41.574Z,102826.38
2023-02-04T13:33:08.158Z,102829.91
2023-02-04T13:35:35.007Z,102828.31
2023-02-04T13:38:01.834Z,102768.41
2023-02-04T13:40:28.448Z,102865.44
2023-02-04T13:42:55.021Z,102851.97
2023-02-04T13:45:21.892Z,102830.81
2023-02-04T13:47:48.816Z,102844.19
2023-02-04T13:50:16.745Z,102834.75
2023-02-04T13:52:43.320Z,102861.91
2023-02-04T13:55:09.908Z,102829.91
2023-02-04T13:57:37.842Z,102861.19
2023-02-04T14:00:07.284Z,102846.53
2023-02-04T14:02:34.395Z,102754.94
2023-02-04T14:05:01.688Z,102850.16
2023-02-04T14:07:28.378Z,102858.97
2023-02-04T14:09:54.882Z,102859.84
2023-02-04T14:12:21.397Z,102825.47
2023-02-04T14:14:48.243Z,102816.09
2023-02-04T14:17:14.733Z,102830.34
2023-02-04T14:19:41.271Z,102864.78
2023-02-04T14:22:07.903Z,102815.44
2023-02-04T14:24:35.182Z,102858.09
2023-02-04T14:27:07.269Z,102867.75
2023-02-04T14:29:36.652Z,102841.16
2023-02-04T14:32:04.661Z,102774.91
2023-02-04T14:34:31.427Z,102840.56
2023-02-04T14:36:58.196Z,102873.97
2023-02-04T14:39:24.983Z,102856.00
2023-02-04T14:41:51.500Z,102828.97
2023-02-04T14:44:20.680Z,102849.00
2023-02-04T14:46:48.857Z,102845.38
2023-02-04T14:49:16.688Z,102864.94
2023-02-04T14:51:43.603Z,102856.44
2023-02-04T14:54:11.477Z,102875.00
2023-02-04T14:56:38.926Z,102841.97
2023-02-04T14:59:05.649Z,102824.03
2023-02-04T15:01:32.646Z,102862.84
2023-02-04T15:03:59.814Z,102855.34
2023-02-04T15:06:26.886Z,102842.84
2023-02-04T15:08:53.914Z,102846.66
2023-02-04T15:11:20.570Z,102849.97
2023-02-04T15:13:47.292Z,102867.13
2023-02-04T15:16:14.912Z,102879.00
2023-02-04T15:18:41.879Z,102842.50
2023-02-04T15:21:09.063Z,102870.22
2023-02-04T15:23:36.044Z,102838.25
2023-02-04T15:26:03.625Z,102804.16
2023-02-04T15:28:31.404Z,102865.53
2023-02-04T15:30:58.440Z,102881.84
2023-02-04T15:33:25.111Z,102878.13
2023-02-04T15:35:51.805Z,102887.75
2023-02-04T15:38:18.496Z,102859.75
2023-02-04T15:40:45.153Z,102880.25
2023-02-04T15:43:11.788Z,102878.31
2023-02-04T15:45:41.373Z,102885.78
2023-02-04T15:48:08.487Z,102893.09
2023-02-04T15:50:35.259Z,102866.84
2023-02-04T15:53:01.835Z,102881.84
2023-02-04T15:55:28.669Z,102888.72
2023-02-04T15:57:55.408Z,102910.97
2023-02-04T16:00:22.929Z,102917.34
2023-02-04T16:02:50.274Z,102914.31
2023-02-04T16:05:17.167Z,102888.59
2023-02-04T16:07:43.867Z,102910.25
2023-02-04T16:10:10.972Z,102876.56
2023-02-04T16:12:38.432Z,102913.50
2023-02-04T16:15:05.459Z,102809.28
2023-02-04T16:17:32.099Z,102893.78
2023-02-04T16:19:58.764Z,102919.78
2023-02-04T16:22:25.454Z,102913.88
2023-02-04T16:24:52.890Z,102896.94
2023-02-04T16:27:19.984Z,102922.81
2023-02-04T16:29:46.624Z,102885.34
2023-02-04T16:32:13.851Z,102901.94
2023-02-04T16:34:40.614Z,102875.16
2023-02-04T16:37:07.659Z,102913.94
2023-02-04T16:39:34.322Z,102893.44
2023-02-04T16:42:01.291Z,102877.50
2023-02-04T16:44:27.928Z,102857.66
2023-02-04T16:46:55.061Z,102913.88
2023-02-04T16:49:22.279Z,102933.28
2023-02-04T16:51:49.154Z,102886.66
2023-02-04T16:54:15.848Z,102892.22
2023-02-04T16:56:42.446Z,102932.19
2023-02-04T16:59:09.416Z,102944.88
2023-02-04T17:01:36.619Z,102945.03
2023-02-04T17:04:03.512Z,102944.22
2023-02-04T17:06:32.118Z,102952.72
2023-02-04T17:08:58.945Z,102954.44
2023-02-04T17:11:28.971Z,102967.16
2023-02-04T17:14:00.876Z,102909.38
2023-02-04T17:16:27.610Z,102965.53
2023-02-04T17:18:57.686Z,102957.78
2023-02-04T17:21:25.601Z,102960.47
2023-02-04T17:23:52.629Z,102958.84
2023-02-04T17:26:19.458Z,102938.00
2023-02-04T17:28:46.020Z,102926.97
2023-02-04T17:31:12.879Z,102953.00
2023-02-04T17:33:39.840Z,102894.19
2023-02-04T17:36:07.113Z,102957.72
2023-02-04T17:38:33.793Z,102891.81
2023-02-04T17:41:01.225Z,102966.41
2023-02-04T17:43:27.720Z,102962.81
2023-02-04T17:45:54.202Z,102968.22
2023-02-04T17:48:20.656Z,102932.34
2023-02-04T17:50:47.216Z,102962.81
2023-02-04T17:53:13.792Z,102929.72
2023-02-04T17:55:40.547Z,102966.91
2023-02-04T17:58:16.067Z,102946.91
2023-02-04T18:00:47.036Z,102950.06
2023-02-04T18:03:16.866Z,102957.56
2023-02-04T18:05:46.015Z,102925.59
2023-02-04T18:08:16.720Z,102963.16
2023-02-04T18:10:45.442Z,102964.44
2023-02-04T18:13:23.405Z,102958.78
2023-02-04T18:15:51.778Z,102961.09
2023-02-04T18:18:24.000Z,102960.69
2023-02-04T18:21:02.958Z,102961.66
2023-02-04T18:23:30.622Z,102946.63
2023-02-04T18:26:10.802Z,102957.88
2023-02-04T18:28:45.649Z,102950.31
2023-02-04T18:31:37.942Z,102937.06
2023-02-04T18:34:16.815Z,102967.25
2023-02-04T18:36:43.276Z,102961.97
2023-02-04T18:39:24.564Z,102973.44
2023-02-04T18:41:51.864Z,102954.34
2023-02-04T18:44:30.507Z,102969.72
2023-02-04T18:46:57.286Z,102961.31
2023-02-04T18:49:42.453Z,102969.41
2023-02-04T18:52:20.270Z,102943.41
2023-02-04T18:54:58.177Z,102964.19
2023-02-04T18:57:39.298Z,102969.25
2023-02-04T19:00:09.150Z,102968.47
2023-02-04T19:02:42.592Z,102949.69
2023-02-04T19:05:34.120Z,102977.91
2023-02-04T19:08:03.822Z,102984.72
2023-02-04T19:10:34.544Z,102976.75
2023-02-04T19:13:17.354Z,102988.69
2023-02-04T19:15:44.602Z,102983.34
2023-02-04T19:18:22.385Z,102989.91
2023-02-04T19:20:49.371Z,102936.56
2023-02-04T19:23:19.518Z,102982.59
2023-02-04T19:25:48.084Z,102939.91
2023-02-04T19:28:24.990Z,102921.88
2023-02-04T19:30:58.237Z,102983.56
2023-02-04T19:33:32.954Z,102964.56
2023-02-04T19:36:02.604Z,102964.63
2023-02-04T19:38:45.066Z,102938.44
2023-02-04T19:41:21.089Z,102956.47
2023-02-04T19:43:47.707Z,102959.91
2023-02-04T19:46:23.964Z,102957.34
2023-02-04T19:48:51.277Z,102972.88
2023-02-04T19:51:17.891Z,102981.81
2023-02-04T19:53:46.976Z,102971.88
2023-02-04T19:56:32.121Z,102995.63
2023-02-04T19:59:06.169Z,102989.84
2023-02-04T20:01:33.471Z,102976.88
2023-02-04T20:04:02.852Z,102990.97
2023-02-04T20:06:32.832Z,102986.59
2023-02-04T20:09:16.633Z,102995.22
2023-02-04T20:12:09.946Z,102996.88
2023-02-04T20:14:55.177Z,102985.84
2023-02-04T20:17:27.003Z,102988.91
2023-02-04T20:19:53.539Z,102967.78
2023-02-04T20:22:22.093Z,102988.38
2023-02-04T20:24:56.893Z,102987.28
2023-02-04T20:27:29.362Z,102984.91
2023-02-04T20:30:01.865Z,102944.09
2023-02-04T20:32:30.092Z,102965.75
2023-02-04T20:35:19.645Z,102983.06
2023-02-04T20:37:50.103Z,102941.53
2023-02-04T20:40:19.495Z,102978.94
2023-02-04T20:42:46.931Z,102973.84
2023-02-04T20:45:33.020Z,102978.81
2023-02-04T20:48:20.026Z,102972.41
2023-02-04T20:50:54.725Z,102973.47
2023-02-04T20:53:21.251Z,102974.44
2023-02-04T20:55:52.129Z,102973.19
2023-02-04T20:58:23.390Z,102966.75
2023-02-04T21:00:52.536Z,102953.81
2023-02-04T21:03:22.031Z,102958.97
2023-02-04T21:05:50.254Z,102936.59
2023-02-04T21:08:29.510Z,102954.47
2023-02-04T21:10:57.367Z,102930.91
2023-02-04T21:13:24.652Z,102921.19
2023-02-04T21:15:51.565Z,102953.47
2023-02-04T21:18:18.696Z,102954.47
2023-02-04T21:20:45.215Z,102938.88
2023-02-04T21:23:11.919Z,102964.75
2023-02-04T21:25:38.636Z,102944.94
2023-02-04T21:28:06.188Z,102933.47
2023-02-04T21:30:32.842Z,102964.94
2023-02-04T21:33:00.149Z,102962.88
2023-02-04T21:35:26.762Z,102915.34
2023-02-04T21:37:54.521Z,102967.78
2023-02-04T21:40:22.084Z,102935.50
2023-02-04T21:42:52.167Z,102966.63
2023-02-04T21:45:20.113Z,102939.03
2023-02-04T21:47:47.818Z,102965.66
2023-02-04T21:50:15.459Z,102974.66
2023-02-04T21:52:42.632Z,102969.06
2023-02-04T21:55:10.477Z,102937.72
2023-02-04T21:57:37.099Z,102943.81
2023-02-04T22:00:05.978Z,102965.47
2023-02-04T22:02:32.513Z,102943.72
2023-02-04T22:04:59.143Z,102935.63
2023-02-04T22:07:25.892Z,102964.53
2023-02-04T22:09:52.517Z,102950.31
2023-02-04T22:12:19.706Z,102957.31
2023-02-04T22:14:46.223Z,102948.59
2023-02-04T22:17:12.727Z,102943.72
2023-02-04T22:19:39.248Z,102946.97
2023-02-04T22:22:05.759Z,102947.97
2023-02-04T22:24:32.209Z,102933.22
2023-02-04T22:26:59.359Z,102940.00
2023-02-04T22:29:29.863Z,102911.06
2023-02-04T22:31:56.650Z,102943.81
2023-02-04T22:34:23.181Z,102933.94
2023-02-04T22:36:49.694Z,102936.75
2023-02-04T22:39:16.172Z,102933.84
2023-02-04T22:41:42.878Z,102937.94
2023-02-04T22:44:09.414Z,102913.41
2023-02-04T22:46:36.011Z,102902.97
2023-02-04T22:49:02.825Z,102906.84
2023-02-04T22:51:29.352Z,102941.06
2023-02-04T22:53:56.170Z,102912.78
2023-02-04T22:56:22.723Z,102900.94
2023-02-04T22:58:50.192Z,102904.31
2023-02-04T23:01:17.452Z,102925.81
2023-02-04T23:03:44.000Z,102929.06
2023-02-04T23:06:10.619Z,102934.28
2023-02-04T23:08:37.217Z,102929.69
2023-02-04T23:11:04.036Z,102940.25
2023-02-04T23:13:30.680Z,102911.47
2023-02-04T23:15:57.204Z,102950.28
2023-02-04T23:18:23.716Z,102950.06
2023-02-04T23:20:50.236Z,102954.50
2023-02-04T23:23:19.645Z,102960.50
2023-02-04T23:25:47.011Z,102922.97
2023-02-04T23:28:14.913Z,102926.16
2023-02-04T23:30:41.622Z,102921.03
2023-02-04T23:33:08.719Z,102936.59
2023-02-04T23:35:35.574Z,102934.75
2023-02-04T23:38:02.911Z,102916.44
2023-02-04T23:40:29.420Z,102903.22
2023-02-04T23:42:55.968Z,102907.03
2023-02-04T23:45:22.690Z,102938.19
2023-02-04T23:47:49.296Z,102905.69
2023-02-04T23:50:16.471Z,102913.66
2023-02-04T23:52:43.425Z,102895.47
2023-02-04T23:55:09.977Z,102929.41
2023-02-04T23:57:36.517Z,102851.00
